Graceville, Florida
Current Conditions -  °F | °C
As of 9:58 PM on Friday 19 Dec 2014 (Local Time) from K1J0 Reporting Station
Light Rain Light Rain  
Wind Chill: 46°   Ceiling: 2600
Heat Index: 49°   Visibility: 3mi
Dew Point: 47°   Wind: 7mph
Humidity: 93%   Direction: 350°N
Pressure: 30.17"   Gusts: NA
Location:  30.96°N, 85.52°W
Report Text: K1J0 200358Z AUTO 35006KT 3SM -RA BR BKN026 OVC031 09/08 A3017 RMK AO2 RAE00B19 SLP200 P0002 T00940083 $
Loading
Personal Weather Stations






























Interactive Weather Map New forecast layout! Learn more

10-Day Weather Forecast

Advertisements
Track Severe Weather on mobile